createdAt,value
2023-10-10T04:15:30.981Z,45.50
2023-10-10T04:16:31.026Z,44.80
2023-10-10T04:17:31.026Z,45.70
2023-10-10T04:18:30.933Z,46.00
2023-10-10T04:19:30.916Z,43.60
2023-10-10T04:20:30.929Z,47.40
2023-10-10T04:21:30.903Z,47.30
2023-10-10T04:22:30.858Z,50.90
2023-10-10T04:23:30.915Z,47.50
2023-10-10T04:24:30.842Z,48.60
2023-10-10T04:25:30.837Z,48.20
2023-10-10T04:26:30.831Z,46.10
2023-10-10T04:27:30.798Z,51.20
2023-10-10T04:28:30.795Z,46.00
2023-10-10T04:29:30.793Z,47.80
2023-10-10T04:30:30.747Z,47.80
2023-10-10T04:31:30.759Z,46.10
2023-10-10T04:32:30.762Z,49.50
2023-10-10T04:33:30.748Z,49.20
2023-10-10T04:34:30.705Z,50.70
2023-10-10T04:35:30.722Z,44.70
2023-10-10T04:36:30.686Z,51.10
2023-10-10T04:37:30.676Z,48.80
2023-10-10T04:38:30.659Z,49.50
2023-10-10T04:39:30.645Z,48.60
2023-10-10T04:40:30.622Z,50.30
2023-10-10T04:41:30.641Z,50.40
2023-10-10T04:42:30.608Z,50.50
2023-10-10T04:43:30.586Z,51.40
2023-10-10T04:44:30.614Z,49.80
2023-10-10T04:45:30.565Z,55.20
2023-10-10T04:46:30.545Z,53.40
2023-10-10T04:47:30.575Z,53.30
2023-10-10T04:48:30.557Z,51.50
2023-10-10T04:49:30.514Z,54.00
2023-10-10T04:50:30.524Z,53.30
2023-10-10T04:51:30.494Z,52.00
2023-10-10T04:52:30.474Z,54.60
2023-10-10T04:53:30.468Z,51.40
2023-10-10T04:54:30.441Z,50.50
2023-10-10T04:55:30.432Z,52.60
2023-10-10T04:56:30.459Z,52.30
2023-10-10T04:57:30.402Z,54.90
2023-10-10T04:58:30.387Z,55.00
2023-10-10T04:59:30.428Z,52.30
2023-10-10T05:00:30.368Z,56.20
2023-10-10T05:01:30.396Z,56.90
2023-10-10T05:02:30.636Z,50.40
2023-10-10T05:03:30.376Z,55.00
2023-10-10T05:04:30.371Z,55.90
2023-10-10T05:05:30.372Z,54.10
2023-10-10T05:06:30.289Z,57.40
2023-10-10T05:07:30.282Z,56.90
2023-10-10T05:08:30.342Z,55.70
2023-10-10T05:09:30.263Z,54.40
2023-10-10T05:10:30.239Z,56.90
2023-10-10T05:11:30.260Z,56.70
2023-10-10T05:12:30.208Z,55.70
2023-10-10T05:13:30.227Z,52.60
2023-10-10T05:14:30.231Z,54.50
2023-10-10T05:15:30.179Z,51.80
2023-10-10T05:16:30.219Z,61.30
2023-10-10T05:17:30.289Z,59.50
2023-10-10T05:18:30.157Z,57.20
2023-10-10T05:19:30.124Z,60.60
2023-10-10T05:20:30.220Z,61.70
2023-10-10T05:21:30.088Z,62.80
2023-10-10T05:22:30.071Z,57.20
2023-10-10T05:23:30.083Z,61.40
2023-10-10T05:24:30.067Z,61.00
2023-10-10T05:25:30.032Z,62.30
2023-10-10T05:26:30.049Z,67.60
2023-10-10T05:27:30.000Z,64.90
2023-10-10T05:28:29.988Z,68.20
2023-10-10T05:29:30.030Z,66.40
2023-10-10T05:30:29.977Z,72.60
2023-10-10T05:31:30.020Z,72.20
2023-10-10T05:32:30.076Z,71.20
2023-10-10T05:33:30.042Z,73.40
2023-10-10T05:34:29.985Z,72.10
2023-10-10T05:35:30.010Z,71.90
2023-10-10T05:36:29.994Z,75.30
2023-10-10T05:37:29.913Z,73.20
2023-10-10T05:38:29.938Z,74.90
2023-10-10T05:39:29.850Z,73.50
2023-10-10T05:40:29.828Z,76.10
2023-10-10T05:41:29.851Z,74.90
2023-10-10T05:42:29.806Z,76.20
2023-10-10T05:43:29.815Z,74.00
2023-10-10T05:44:29.786Z,73.50
2023-10-10T05:45:29.797Z,70.60
2023-10-10T05:46:29.759Z,70.50
2023-10-10T05:47:29.852Z,68.80
2023-10-10T05:48:29.804Z,69.70
2023-10-10T05:49:31.909Z,69.60
2023-10-10T05:50:29.744Z,68.80
2023-10-10T05:51:29.685Z,68.60
2023-10-10T05:52:29.685Z,71.60
2023-10-10T05:53:29.693Z,70.00
2023-10-10T05:54:29.641Z,68.80
2023-10-10T05:55:29.634Z,68.70
2023-10-10T05:56:29.656Z,69.00
2023-10-10T05:57:29.671Z,69.50
2023-10-10T05:58:29.589Z,66.30
2023-10-10T05:59:29.615Z,68.10
2023-10-10T06:00:29.566Z,66.50
2023-10-10T06:01:29.588Z,65.10
2023-10-10T06:02:29.698Z,68.40
2023-10-10T06:03:29.584Z,66.50
2023-10-10T06:04:29.716Z,64.60
2023-10-10T06:05:29.546Z,63.00
2023-10-10T06:06:29.495Z,61.30
2023-10-10T06:07:29.473Z,65.00
2023-10-10T06:08:29.505Z,63.90
2023-10-10T06:09:29.445Z,64.20
2023-10-10T06:10:29.425Z,62.90
2023-10-10T06:11:29.444Z,60.20
2023-10-10T06:12:29.403Z,63.40
2023-10-10T06:13:29.392Z,61.50
2023-10-10T06:14:29.410Z,59.00
2023-10-10T06:15:29.439Z,56.80
2023-10-10T06:16:29.426Z,58.20
2023-10-10T06:17:29.484Z,57.80
2023-10-10T06:18:29.508Z,56.70
2023-10-10T06:19:29.349Z,59.80
2023-10-10T06:20:29.341Z,55.50
2023-10-10T06:21:29.294Z,57.30
2023-10-10T06:22:29.269Z,55.70
2023-10-10T06:23:29.306Z,55.70
2023-10-10T06:24:29.256Z,53.80
2023-10-10T06:25:29.254Z,51.20
2023-10-10T06:26:29.246Z,53.60
2023-10-10T06:27:29.208Z,54.70
2023-10-10T06:28:29.204Z,50.50
2023-10-10T06:29:29.238Z,51.20
2023-10-10T06:30:29.164Z,54.50
2023-10-10T06:31:29.170Z,57.90
2023-10-10T06:32:29.205Z,55.70
2023-10-10T06:33:29.382Z,55.10
2023-10-10T06:34:29.124Z,51.10
2023-10-10T06:35:29.336Z,51.70
2023-10-10T06:36:29.105Z,51.10
2023-10-10T06:37:29.080Z,51.70
2023-10-10T06:38:29.204Z,49.80
2023-10-10T06:39:29.068Z,50.50
2023-10-10T06:40:29.041Z,45.80
2023-10-10T06:41:29.443Z,42.50
2023-10-10T06:42:29.093Z,45.70
2023-10-10T06:43:29.017Z,45.20
2023-10-10T06:44:29.032Z,47.70
2023-10-10T06:45:29.014Z,43.10
2023-10-10T06:46:28.960Z,47.30
2023-10-10T06:47:29.041Z,41.50
2023-10-10T06:48:29.016Z,44.80
2023-10-10T06:49:28.933Z,44.90
2023-10-10T06:50:28.932Z,42.90
2023-10-10T06:51:28.897Z,44.90
2023-10-10T06:52:29.462Z,44.90
2023-10-10T06:53:28.926Z,45.90
2023-10-10T06:54:29.239Z,49.30
2023-10-10T06:55:28.850Z,45.40
2023-10-10T06:56:28.871Z,49.80
2023-10-10T06:57:28.835Z,51.70
2023-10-10T06:58:28.818Z,50.70
2023-10-10T06:59:28.906Z,51.20
2023-10-10T07:00:28.889Z,51.20
2023-10-10T07:01:28.807Z,45.40
2023-10-10T07:02:28.819Z,50.40
2023-10-10T07:03:28.841Z,47.10
2023-10-10T07:04:28.968Z,50.30
2023-10-10T07:05:28.792Z,44.10
2023-10-10T07:06:28.700Z,46.60
2023-10-10T07:07:28.719Z,49.00
2023-10-10T07:08:28.686Z,46.90
2023-10-10T07:09:28.681Z,47.30
2023-10-10T07:10:28.649Z,45.60
2023-10-10T07:11:28.660Z,44.30
2023-10-10T07:12:28.631Z,42.30
2023-10-10T07:13:28.607Z,44.60
2023-10-10T07:14:28.656Z,44.20
2023-10-10T07:15:28.612Z,43.00
2023-10-10T07:16:28.611Z,41.20
2023-10-10T07:17:28.839Z,42.40
2023-10-10T07:18:28.606Z,43.20
2023-10-10T07:19:28.522Z,43.60
2023-10-10T07:20:28.551Z,43.60
2023-10-10T07:21:28.500Z,45.20
2023-10-10T07:22:28.486Z,44.50
2023-10-10T07:23:28.533Z,44.30
2023-10-10T07:24:28.457Z,44.00
2023-10-10T07:25:28.537Z,43.70
2023-10-10T07:26:28.457Z,43.90
2023-10-10T07:27:28.702Z,43.00
2023-10-10T07:28:28.416Z,43.50
2023-10-10T07:29:28.425Z,45.40
2023-10-10T07:30:28.388Z,44.60
2023-10-10T07:31:28.402Z,43.40
2023-10-10T07:32:28.389Z,42.80
2023-10-10T07:33:28.354Z,43.20
2023-10-10T07:34:28.325Z,42.80
2023-10-10T07:35:28.347Z,43.00
2023-10-10T07:36:28.299Z,43.20
2023-10-10T07:37:28.282Z,43.30
2023-10-10T07:38:28.326Z,40.60
2023-10-10T07:39:28.257Z,43.40
2023-10-10T07:40:28.265Z,41.60
2023-10-10T07:41:28.299Z,42.10
2023-10-10T07:42:28.227Z,40.80
2023-10-10T07:43:28.275Z,40.20
2023-10-10T07:44:28.247Z,39.90
2023-10-10T07:45:28.183Z,39.10
2023-10-10T07:46:28.177Z,36.70
2023-10-10T07:47:28.629Z,38.90
2023-10-10T07:48:28.215Z,39.60
2023-10-10T07:49:28.131Z,37.90
2023-10-10T07:50:28.262Z,38.40
2023-10-10T07:51:28.089Z,38.50
2023-10-10T07:52:28.100Z,38.30
2023-10-10T07:53:28.096Z,39.10
2023-10-10T07:54:28.069Z,35.30
2023-10-10T07:55:28.052Z,35.70
2023-10-10T07:56:28.048Z,36.40
2023-10-10T07:57:28.016Z,36.30
2023-10-10T07:58:40.954Z,35.80
2023-10-10T07:59:29.017Z,35.80
2023-10-10T08:00:28.058Z,34.10
2023-10-10T08:01:28.017Z,36.40
2023-10-10T08:02:28.006Z,35.70
2023-10-10T08:03:27.993Z,34.10
2023-10-10T08:04:27.954Z,33.60
2023-10-10T08:05:27.919Z,34.90
2023-10-10T08:06:27.921Z,33.20
2023-10-10T08:07:27.877Z,33.70
2023-10-10T08:08:27.917Z,31.40
2023-10-10T08:09:27.856Z,30.60
2023-10-10T08:10:27.841Z,28.90
2023-10-10T08:11:27.858Z,27.70
2023-10-10T08:12:27.823Z,29.80
2023-10-10T08:13:27.826Z,29.50
2023-10-10T08:14:27.804Z,30.00
2023-10-10T08:15:27.776Z,29.50
2023-10-10T08:16:27.809Z,28.80
2023-10-10T08:17:27.961Z,28.30
2023-10-10T08:18:27.771Z,29.50
2023-10-10T08:19:27.730Z,31.60
2023-10-10T08:20:27.759Z,28.70
2023-10-10T08:21:27.700Z,27.90
2023-10-10T08:22:27.693Z,27.40
2023-10-10T08:23:27.711Z,27.60
2023-10-10T08:24:27.655Z,28.10
2023-10-10T08:25:27.661Z,27.50
2023-10-10T08:26:27.796Z,27.80
2023-10-10T08:27:27.628Z,28.30
2023-10-10T08:28:27.603Z,28.20
2023-10-10T08:29:27.669Z,27.40
2023-10-10T08:30:27.574Z,26.80
2023-10-10T08:31:27.595Z,26.80
2023-10-10T08:32:27.595Z,25.40
2023-10-10T08:33:27.718Z,26.60
2023-10-10T08:34:28.276Z,28.10
2023-10-10T08:35:27.527Z,27.10
2023-10-10T08:36:27.512Z,26.20
2023-10-10T08:37:27.487Z,25.80
2023-10-10T08:38:27.518Z,25.00
2023-10-10T08:39:27.501Z,26.80
2023-10-10T08:40:27.465Z,25.70
2023-10-10T08:41:27.485Z,26.00
2023-10-10T08:42:27.642Z,25.00
2023-10-10T08:43:27.426Z,22.60
2023-10-10T08:44:27.508Z,24.30
2023-10-10T08:45:27.417Z,23.50
2023-10-10T08:46:27.391Z,23.10
2023-10-10T08:47:27.480Z,24.50
2023-10-10T08:48:27.428Z,22.20
2023-10-10T08:49:27.350Z,22.30
2023-10-10T08:50:27.356Z,21.60
2023-10-10T08:51:27.306Z,21.70
2023-10-10T08:52:27.289Z,21.20
2023-10-10T08:53:27.346Z,20.20
2023-10-10T08:54:27.395Z,20.70
2023-10-10T08:55:27.282Z,20.20
2023-10-10T08:56:27.246Z,21.20
2023-10-10T08:57:27.272Z,20.10
2023-10-10T08:58:27.214Z,19.00
2023-10-10T08:59:27.238Z,18.10
2023-10-10T09:00:27.266Z,19.00
2023-10-10T09:01:27.193Z,18.60
2023-10-10T09:02:27.173Z,17.60
2023-10-10T09:03:27.222Z,16.50
2023-10-10T09:04:27.182Z,16.50
2023-10-10T09:05:27.147Z,17.30
2023-10-10T09:06:27.103Z,17.40
2023-10-10T09:07:27.112Z,16.80
2023-10-10T09:08:27.134Z,16.40
2023-10-10T09:09:27.094Z,16.40
2023-10-10T09:10:27.047Z,17.60
2023-10-10T09:11:27.087Z,15.70
2023-10-10T09:12:27.036Z,16.10
2023-10-10T09:13:27.022Z,15.90
2023-10-10T09:14:27.029Z,15.90
2023-10-10T09:15:27.014Z,15.80
2023-10-10T09:16:27.010Z,15.00
2023-10-10T09:17:27.027Z,15.40
2023-10-10T09:18:27.545Z,14.00
2023-10-10T09:19:26.938Z,13.50
2023-10-10T09:20:34.013Z,14.00
2023-10-10T09:21:26.922Z,13.50
2023-10-10T09:22:26.899Z,13.20
2023-10-10T09:23:26.986Z,12.60
2023-10-10T09:24:26.874Z,12.90
2023-10-10T09:25:26.864Z,12.60
2023-10-10T09:26:26.857Z,12.10
2023-10-10T09:27:26.849Z,11.60
2023-10-10T09:28:26.809Z,10.60
2023-10-10T09:29:26.812Z,10.90
2023-10-10T09:30:26.835Z,11.00
2023-10-10T09:31:26.831Z,10.50
2023-10-10T09:32:26.816Z,9.90
2023-10-10T09:33:26.798Z,10.60
2023-10-10T09:34:26.734Z,10.00
2023-10-10T09:35:26.761Z,9.60
2023-10-10T09:36:26.720Z,9.60
2023-10-10T09:37:26.698Z,9.60
2023-10-10T09:38:26.776Z,9.50
2023-10-10T09:39:26.742Z,9.20
2023-10-10T09:40:26.668Z,9.60
2023-10-10T09:41:26.724Z,9.00
2023-10-10T09:42:26.635Z,8.90
2023-10-10T09:43:26.636Z,8.40
2023-10-10T09:44:26.655Z,8.70
2023-10-10T09:45:26.619Z,8.60
2023-10-10T09:46:26.612Z,8.60
2023-10-10T09:47:26.637Z,8.10
2023-10-10T09:48:26.554Z,8.50
2023-10-10T09:49:26.540Z,8.30
2023-10-10T09:50:26.579Z,8.60
2023-10-10T09:51:26.532Z,8.70
2023-10-10T09:52:26.498Z,7.60
2023-10-10T09:53:26.575Z,8.00
2023-10-10T09:54:26.567Z,7.50
2023-10-10T09:55:26.490Z,7.50
2023-10-10T09:56:26.496Z,6.90
2023-10-10T09:57:26.437Z,6.90
2023-10-10T09:58:26.444Z,6.80
2023-10-10T09:59:26.486Z,7.20
2023-10-10T10:00:27.585Z,6.70
2023-10-10T10:01:26.494Z,6.90
2023-10-10T10:02:26.401Z,7.30
2023-10-10T10:03:26.412Z,6.90
2023-10-10T10:04:26.515Z,6.80
2023-10-10T10:05:26.331Z,6.70
2023-10-10T10:06:26.307Z,6.70
2023-10-10T10:07:26.299Z,6.40
2023-10-10T10:08:26.306Z,7.40
2023-10-10T10:09:26.284Z,6.20
2023-10-10T10:10:26.261Z,6.70
2023-10-10T10:11:26.280Z,6.20
2023-10-10T10:12:26.240Z,6.30
2023-10-10T10:13:26.231Z,5.60
2023-10-10T10:14:26.482Z,6.50
2023-10-10T10:15:26.200Z,5.50
2023-10-10T10:16:26.259Z,6.20
2023-10-10T10:17:26.236Z,6.00
2023-10-10T10:18:26.219Z,5.60
2023-10-10T10:19:26.145Z,6.10
2023-10-10T10:20:26.155Z,5.90
2023-10-10T10:21:26.115Z,5.70
2023-10-10T10:22:26.098Z,5.10
2023-10-10T10:23:26.150Z,5.70
2023-10-10T10:24:26.094Z,4.90
2023-10-10T10:25:26.068Z,4.80
2023-10-10T10:26:26.088Z,5.00
2023-10-10T10:27:26.161Z,5.30
2023-10-10T10:28:26.037Z,5.20
2023-10-10T10:29:26.041Z,5.20
2023-10-10T10:30:25.997Z,4.90
2023-10-10T10:31:26.026Z,5.30
2023-10-10T10:32:26.233Z,4.60
2023-10-10T10:33:25.995Z,5.20
2023-10-10T10:34:25.949Z,4.80
2023-10-10T10:35:26.074Z,4.40
2023-10-10T10:36:25.941Z,4.10
2023-10-10T10:37:25.931Z,4.60
2023-10-10T10:38:26.192Z,4.50
2023-10-10T10:39:25.885Z,4.10
2023-10-10T10:40:25.866Z,4.10
2023-10-10T10:41:25.929Z,4.20
2023-10-10T10:42:25.850Z,4.20
2023-10-10T10:43:25.865Z,4.10
2023-10-10T10:44:25.836Z,4.10
2023-10-10T10:45:25.835Z,4.00
2023-10-10T10:46:25.813Z,5.60
2023-10-10T10:47:25.829Z,3.70
2023-10-10T10:48:25.834Z,3.70
2023-10-10T10:49:25.752Z,4.00
2023-10-10T10:50:25.792Z,3.70
2023-10-10T10:51:25.769Z,4.30
2023-10-10T10:52:25.717Z,4.10
2023-10-10T10:53:25.709Z,4.10
2023-10-10T10:54:25.695Z,3.90
2023-10-10T10:55:25.702Z,4.00
2023-10-10T10:56:25.690Z,3.60
2023-10-10T10:57:32.682Z,3.80
2023-10-10T10:58:26.631Z,3.70
2023-10-10T10:59:25.650Z,3.90
2023-10-10T11:00:25.729Z,3.80
2023-10-10T11:01:25.659Z,3.50
2023-10-10T11:02:25.713Z,3.80
2023-10-10T11:03:25.675Z,3.50
2023-10-10T11:04:25.652Z,3.90
2023-10-10T11:05:25.648Z,3.70
2023-10-10T11:06:25.583Z,3.60
2023-10-10T11:07:25.531Z,3.60
2023-10-10T11:08:25.562Z,3.60
2023-10-10T11:09:25.493Z,3.70
2023-10-10T11:10:25.501Z,3.60
2023-10-10T11:11:25.496Z,4.10
2023-10-10T11:12:25.451Z,3.80
2023-10-10T11:13:25.444Z,3.40
2023-10-10T11:14:25.446Z,4.20
2023-10-10T11:15:25.449Z,3.90
2023-10-10T11:16:25.466Z,3.60
2023-10-10T11:17:25.451Z,3.30
2023-10-10T11:18:25.641Z,6.50
2023-10-10T11:19:25.628Z,4.00
2023-10-10T11:20:25.390Z,3.80
2023-10-10T11:21:25.338Z,3.50
2023-10-10T11:22:25.329Z,4.00
2023-10-10T11:23:25.344Z,3.80
2023-10-10T11:24:25.321Z,3.70
2023-10-10T11:25:25.292Z,3.80
2023-10-10T11:26:25.300Z,3.70
2023-10-10T11:27:25.270Z,3.80
2023-10-10T11:28:25.263Z,3.60
2023-10-10T11:29:25.271Z,4.60
2023-10-10T11:30:25.545Z,3.40
2023-10-10T11:31:25.372Z,4.00
2023-10-10T11:32:25.475Z,3.80
2023-10-10T11:33:25.237Z,3.70
2023-10-10T11:34:25.176Z,3.50
2023-10-10T11:35:25.237Z,3.60
2023-10-10T11:36:25.153Z,4.80
2023-10-10T11:37:25.591Z,3.60
2023-10-10T11:38:25.389Z,4.40
2023-10-10T11:39:25.118Z,4.00
2023-10-10T11:40:25.093Z,5.00
2023-10-10T11:41:25.141Z,4.20
2023-10-10T11:42:25.090Z,3.70
2023-10-10T11:43:25.072Z,3.40
2023-10-10T11:44:25.101Z,3.80
2023-10-10T11:45:25.090Z,3.90
2023-10-10T11:46:25.064Z,3.50
2023-10-10T11:47:25.132Z,4.50
2023-10-10T11:48:25.111Z,3.50
2023-10-10T11:49:24.985Z,4.00
2023-10-10T11:50:25.044Z,3.50
2023-10-10T11:51:24.973Z,3.70
2023-10-10T11:52:24.956Z,3.80
2023-10-10T11:53:25.631Z,3.60
2023-10-10T11:54:24.925Z,3.80
2023-10-10T11:55:24.913Z,3.90
2023-10-10T11:56:24.913Z,3.90
2023-10-10T11:57:24.898Z,3.60
2023-10-10T11:58:24.883Z,3.70
2023-10-10T11:59:24.900Z,3.90
2023-10-10T12:00:27.660Z,3.90
2023-10-10T12:01:25.984Z,3.70
2023-10-10T12:02:24.847Z,3.90
2023-10-10T12:03:25.036Z,3.80
2023-10-10T12:04:24.827Z,4.00
2023-10-10T12:05:24.849Z,3.90
2023-10-10T12:06:24.780Z,3.70
2023-10-10T12:07:24.764Z,3.60
2023-10-10T12:08:24.924Z,3.90
2023-10-10T12:09:24.746Z,3.60
2023-10-10T12:10:24.736Z,3.90
2023-10-10T12:11:24.780Z,3.80
2023-10-10T12:12:24.704Z,3.50
2023-10-10T12:13:24.695Z,4.10
2023-10-10T12:14:24.722Z,3.50
2023-10-10T12:15:24.686Z,3.40
2023-10-10T12:16:25.698Z,3.80
2023-10-10T12:17:24.718Z,3.50
2023-10-10T12:18:24.738Z,4.50
2023-10-10T12:19:24.626Z,4.10
2023-10-10T12:20:24.646Z,4.30
2023-10-10T12:21:25.075Z,3.70
2023-10-10T12:22:24.581Z,4.20
2023-10-10T12:23:24.594Z,3.70
2023-10-10T12:24:24.575Z,4.10
2023-10-10T12:25:24.569Z,3.70
2023-10-10T12:26:24.569Z,4.70
2023-10-10T12:27:24.529Z,3.90
2023-10-10T12:28:24.509Z,3.60
2023-10-10T12:29:25.995Z,3.70
2023-10-10T12:30:24.488Z,4.30
2023-10-10T12:31:24.616Z,3.70
2023-10-10T12:32:25.463Z,3.70
2023-10-10T12:33:24.536Z,3.50
2023-10-10T12:34:24.451Z,3.70
2023-10-10T12:35:24.458Z,3.30
2023-10-10T12:36:24.427Z,3.60
2023-10-10T12:37:24.600Z,3.40
2023-10-10T12:38:24.412Z,3.40
2023-10-10T12:39:24.390Z,4.30
2023-10-10T12:40:24.390Z,3.60
2023-10-10T12:41:24.430Z,3.90
2023-10-10T12:42:24.336Z,3.20
2023-10-10T12:43:24.344Z,4.10
2023-10-10T12:44:24.363Z,3.40
2023-10-10T12:45:24.300Z,3.60
2023-10-10T12:46:24.332Z,3.80
2023-10-10T12:47:24.294Z,3.50
2023-10-10T12:48:24.380Z,3.70
2023-10-10T12:49:24.258Z,3.60
2023-10-10T12:50:24.252Z,3.70
2023-10-10T12:51:24.403Z,3.70
2023-10-10T12:52:24.226Z,3.70
2023-10-10T12:53:24.397Z,3.30
2023-10-10T12:54:24.186Z,3.70
2023-10-10T12:55:24.184Z,4.30
2023-10-10T12:56:24.177Z,3.40
2023-10-10T12:57:24.172Z,3.40
2023-10-10T12:58:24.157Z,3.40
2023-10-10T12:59:27.794Z,3.10
2023-10-10T13:00:24.123Z,3.70
2023-10-10T13:01:24.178Z,4.00
2023-10-10T13:02:24.118Z,3.30
2023-10-10T13:03:24.219Z,3.60
2023-10-10T13:04:24.074Z,3.20
2023-10-10T13:05:24.080Z,3.30
2023-10-10T13:06:24.469Z,3.40
2023-10-10T13:07:24.037Z,3.70
2023-10-10T13:08:24.040Z,3.70
2023-10-10T13:09:24.003Z,3.70
2023-10-10T13:10:23.989Z,4.30
2023-10-10T13:11:24.013Z,3.60
2023-10-10T13:12:23.970Z,4.80
2023-10-10T13:13:23.951Z,4.20
2023-10-10T13:14:23.939Z,3.80
2023-10-10T13:15:23.969Z,3.60
2023-10-10T13:16:23.988Z,3.50
2023-10-10T13:17:23.926Z,3.40
2023-10-10T13:18:23.986Z,3.20
2023-10-10T13:19:23.881Z,4.00
2023-10-10T13:20:23.931Z,3.70
2023-10-10T13:21:23.858Z,3.50
2023-10-10T13:22:23.831Z,3.70
2023-10-10T13:23:23.924Z,3.80
2023-10-10T13:24:23.806Z,3.60
2023-10-10T13:25:23.824Z,3.30
2023-10-10T13:26:23.862Z,3.70
2023-10-10T13:27:23.766Z,5.00
2023-10-10T13:28:23.752Z,3.80
2023-10-10T13:29:23.772Z,3.40
2023-10-10T13:30:23.736Z,3.70
2023-10-10T13:31:23.749Z,3.90
2023-10-10T13:32:23.714Z,4.50
2023-10-10T13:33:23.801Z,4.70
2023-10-10T13:34:23.737Z,4.10
2023-10-10T13:35:23.686Z,3.70
2023-10-10T13:36:23.648Z,3.90
2023-10-10T13:37:23.643Z,3.70
2023-10-10T13:38:23.635Z,3.90
2023-10-10T13:39:23.624Z,5.10
2023-10-10T13:40:23.610Z,3.80
2023-10-10T13:41:23.628Z,4.60
2023-10-10T13:42:23.577Z,4.10
2023-10-10T13:43:23.581Z,4.20
2023-10-10T13:44:23.585Z,4.00
2023-10-10T13:45:24.007Z,3.80
2023-10-10T13:46:23.575Z,4.00
2023-10-10T13:47:23.533Z,4.00
2023-10-10T13:48:23.638Z,4.10
2023-10-10T13:49:23.515Z,4.20
2023-10-10T13:50:23.489Z,4.10
2023-10-10T13:51:23.462Z,3.70
2023-10-10T13:52:23.443Z,3.90
2023-10-10T13:53:23.465Z,3.70
2023-10-10T13:54:23.417Z,4.20
2023-10-10T13:55:23.418Z,3.80
2023-10-10T13:56:23.425Z,4.20
2023-10-10T13:57:23.387Z,4.20
2023-10-10T13:58:23.381Z,4.00
2023-10-10T13:59:23.397Z,3.80
2023-10-10T14:00:23.342Z,4.00
2023-10-10T14:01:23.398Z,4.40
2023-10-10T14:02:23.384Z,3.60
2023-10-10T14:03:23.466Z,3.80
2023-10-10T14:04:23.557Z,3.80
2023-10-10T14:05:23.298Z,3.40
2023-10-10T14:06:23.262Z,3.50
2023-10-10T14:07:23.269Z,4.30
2023-10-10T14:08:23.286Z,4.20
2023-10-10T14:09:23.250Z,4.00
2023-10-10T14:10:23.218Z,3.70
2023-10-10T14:11:23.368Z,4.10
2023-10-10T14:12:23.209Z,3.40
2023-10-10T14:13:23.181Z,3.70
2023-10-10T14:14:23.206Z,4.50
2023-10-10T14:15:23.175Z,3.50
2023-10-10T14:16:23.236Z,3.20
2023-10-10T14:17:23.166Z,3.70
2023-10-10T14:18:23.156Z,3.30
2023-10-10T14:19:23.113Z,3.90
2023-10-10T14:20:23.152Z,3.70
2023-10-10T14:21:23.098Z,3.50
2023-10-10T14:22:23.077Z,3.50
2023-10-10T14:23:23.078Z,3.70
2023-10-10T14:24:23.042Z,5.40
2023-10-10T14:25:23.024Z,3.10
2023-10-10T14:26:23.041Z,4.00
2023-10-10T14:27:22.997Z,4.20
2023-10-10T14:28:22.980Z,3.70
2023-10-10T14:29:22.998Z,3.80
2023-10-10T14:30:22.962Z,3.60
2023-10-10T14:31:23.224Z,4.40
2023-10-10T14:32:37.546Z,3.60
2023-10-10T14:33:23.994Z,3.60
2023-10-10T14:34:22.900Z,4.00
2023-10-10T14:35:22.929Z,3.70
2023-10-10T14:36:22.884Z,3.80
2023-10-10T14:38:22.876Z,3.60
2023-10-10T14:39:22.840Z,3.80
2023-10-10T14:40:22.836Z,3.70
2023-10-10T14:41:22.869Z,3.60
2023-10-10T14:42:22.797Z,3.50
2023-10-10T14:43:22.799Z,3.90
2023-10-10T14:44:22.828Z,4.50
2023-10-10T14:45:22.776Z,3.60
2023-10-10T14:46:23.152Z,3.70
2023-10-10T14:47:22.784Z,3.70
2023-10-10T14:48:22.751Z,4.20
2023-10-10T14:49:22.742Z,3.60
2023-10-10T14:50:22.736Z,3.60
2023-10-10T14:51:22.685Z,3.80
2023-10-10T14:52:22.680Z,4.30
2023-10-10T14:53:22.677Z,3.50
2023-10-10T14:54:22.667Z,3.90
2023-10-10T14:55:22.641Z,3.90
2023-10-10T14:56:23.379Z,3.30
2023-10-10T14:57:22.613Z,3.70
2023-10-10T14:58:22.594Z,3.60
2023-10-10T14:59:22.655Z,3.40
2023-10-10T15:00:22.588Z,3.60
2023-10-10T15:01:22.562Z,3.80
2023-10-10T15:02:22.580Z,3.40
2023-10-10T15:03:22.612Z,3.40
2023-10-10T15:04:22.605Z,3.60
2023-10-10T15:05:22.527Z,3.70
2023-10-10T15:06:22.485Z,3.70
2023-10-10T15:07:22.523Z,3.80
2023-10-10T15:08:22.473Z,3.80
2023-10-10T15:09:22.450Z,3.70
2023-10-10T15:10:22.476Z,3.30
2023-10-10T15:11:22.454Z,4.00
2023-10-10T15:12:22.419Z,3.40
2023-10-10T15:13:22.411Z,4.00
2023-10-10T15:14:22.426Z,3.60
2023-10-10T15:15:22.372Z,3.40
2023-10-10T15:16:22.398Z,3.70
2023-10-10T15:17:22.383Z,3.40
2023-10-10T15:18:22.420Z,3.00
2023-10-10T15:19:22.318Z,3.20
2023-10-10T15:20:23.698Z,3.90
2023-10-10T15:21:29.335Z,3.40
2023-10-10T15:22:22.289Z,3.30
2023-10-10T15:23:22.316Z,3.30
2023-10-10T15:24:22.243Z,3.50
2023-10-10T15:25:22.230Z,3.10
2023-10-10T15:26:22.254Z,3.30
2023-10-10T15:27:22.232Z,3.50
2023-10-10T15:28:22.190Z,3.30
2023-10-10T15:29:22.437Z,3.40
2023-10-10T15:30:22.245Z,3.40
2023-10-10T15:31:22.168Z,3.80
2023-10-10T15:32:22.162Z,3.60
2023-10-10T15:33:22.178Z,3.40
2023-10-10T15:34:22.135Z,3.50
2023-10-10T15:35:22.120Z,3.60
2023-10-10T15:36:22.091Z,3.90
2023-10-10T15:37:22.076Z,3.20
2023-10-10T15:38:22.118Z,3.40
2023-10-10T15:39:22.048Z,3.60
2023-10-10T15:40:22.787Z,3.30
2023-10-10T15:41:22.074Z,3.60
2023-10-10T15:42:22.005Z,3.40
2023-10-10T15:43:32.258Z,3.20
2023-10-10T15:44:23.022Z,3.40
2023-10-10T15:45:22.040Z,3.20
2023-10-10T15:46:21.967Z,4.10
2023-10-10T15:47:21.984Z,3.50
2023-10-10T15:48:22.008Z,3.60
2023-10-10T15:49:35.755Z,3.10
2023-10-10T15:50:23.377Z,3.60
2023-10-10T15:51:21.905Z,3.40
2023-10-10T15:52:21.883Z,3.20
2023-10-10T15:53:21.902Z,3.30
2023-10-10T15:54:21.865Z,3.30
2023-10-10T15:55:21.850Z,3.20
2023-10-10T15:56:21.864Z,3.00
2023-10-10T15:57:21.816Z,3.30
2023-10-10T15:58:21.797Z,4.00
2023-10-10T15:59:21.830Z,3.40
2023-10-10T16:00:21.770Z,3.60
2023-10-10T16:01:21.779Z,3.20
2023-10-10T16:02:21.741Z,3.90
2023-10-10T16:03:21.815Z,3.30
2023-10-10T16:04:21.752Z,3.40
2023-10-10T16:05:21.745Z,3.00
2023-10-10T16:06:21.693Z,3.20
2023-10-10T16:07:21.691Z,3.30
2023-10-10T16:08:21.701Z,3.20
2023-10-10T16:09:21.820Z,3.10
2023-10-10T16:10:21.647Z,3.80
2023-10-10T16:11:21.685Z,3.50
2023-10-10T16:12:21.643Z,3.20
2023-10-10T16:13:21.622Z,3.30
2023-10-10T16:14:21.652Z,3.20
2023-10-10T16:15:30.513Z,3.50
2023-10-10T16:16:22.612Z,3.20
2023-10-10T16:17:21.570Z,3.30
2023-10-10T16:18:21.690Z,3.40
2023-10-10T16:19:21.539Z,3.20
2023-10-10T16:20:21.557Z,3.30
2023-10-10T16:21:21.511Z,3.10
2023-10-10T16:22:21.498Z,3.50
2023-10-10T16:23:21.501Z,3.20
2023-10-10T16:24:21.476Z,3.60
2023-10-10T16:25:21.449Z,3.40
2023-10-10T16:26:21.444Z,3.80
2023-10-10T16:27:21.437Z,3.50
2023-10-10T16:28:23.218Z,3.50
2023-10-10T16:29:21.422Z,3.50
2023-10-10T16:30:21.381Z,3.00
2023-10-10T16:31:21.426Z,3.60
2023-10-10T16:32:21.430Z,3.40
2023-10-10T16:33:21.420Z,3.50
2023-10-10T16:34:21.329Z,3.90
2023-10-10T16:35:21.373Z,3.40
2023-10-10T16:36:21.322Z,3.70
2023-10-10T16:37:21.344Z,3.50
2023-10-10T16:38:21.287Z,3.60
2023-10-10T16:39:21.313Z,3.60
2023-10-10T16:40:21.278Z,3.50
2023-10-10T16:41:21.247Z,3.90
2023-10-10T16:42:21.255Z,3.70
2023-10-10T16:43:21.209Z,3.90
2023-10-10T16:44:21.233Z,3.60
2023-10-10T16:45:21.239Z,3.30
2023-10-10T16:46:21.241Z,3.70
2023-10-10T16:47:21.175Z,3.50
2023-10-10T16:48:21.252Z,3.80
2023-10-10T16:49:21.148Z,3.70
2023-10-10T16:50:21.116Z,3.90
2023-10-10T16:51:21.114Z,3.40
2023-10-10T16:52:21.312Z,3.50
2023-10-10T16:53:21.093Z,4.30
2023-10-10T16:54:21.067Z,3.60
2023-10-10T16:55:21.051Z,4.00
2023-10-10T16:56:21.054Z,4.20
2023-10-10T16:57:21.017Z,3.40
2023-10-10T16:59:21.028Z,3.80
2023-10-10T17:00:21.004Z,4.10
2023-10-10T17:01:21.015Z,3.90
2023-10-10T17:02:20.988Z,4.00
2023-10-10T17:03:21.140Z,3.70
2023-10-10T17:04:21.084Z,4.30
2023-10-10T17:05:20.927Z,3.70
2023-10-10T17:06:20.908Z,3.60
2023-10-10T17:07:20.895Z,3.70
2023-10-10T17:08:20.890Z,3.90
2023-10-10T17:09:20.860Z,3.60
2023-10-10T17:10:20.991Z,3.50
2023-10-10T17:11:20.839Z,4.00
2023-10-10T17:12:20.834Z,3.90
2023-10-10T17:13:20.823Z,3.90
2023-10-10T17:14:20.834Z,4.20
2023-10-10T17:15:20.795Z,3.90
2023-10-10T17:16:22.086Z,3.70
2023-10-10T17:17:20.769Z,4.00
2023-10-10T17:18:20.814Z,4.00
2023-10-10T17:19:20.787Z,3.60
2023-10-10T17:20:20.736Z,3.40
2023-10-10T17:21:20.715Z,3.30
2023-10-10T17:22:20.715Z,4.00
2023-10-10T17:23:20.691Z,3.70
2023-10-10T17:24:20.686Z,3.90